createdAt,value
2019-03-24T00:01:06.408Z,99.90
2019-03-24T00:03:22.758Z,99.90
2019-03-24T00:05:28.560Z,99.90
2019-03-24T00:07:33.498Z,99.90
2019-03-24T00:09:38.878Z,99.90
2019-03-24T00:11:44.179Z,99.90
2019-03-24T00:13:49.152Z,99.90
2019-03-24T00:15:54.118Z,99.90
2019-03-24T00:17:59.374Z,99.90
2019-03-24T00:20:04.597Z,99.90
2019-03-24T00:22:09.520Z,99.90
2019-03-24T00:24:14.461Z,99.90
2019-03-24T00:26:19.462Z,99.90
2019-03-24T00:28:24.603Z,99.90
2019-03-24T00:30:29.529Z,99.90
2019-03-24T00:32:34.748Z,99.90
2019-03-24T00:34:42.491Z,99.90
2019-03-24T00:36:47.443Z,99.90
2019-03-24T00:38:52.514Z,99.90
2019-03-24T00:40:57.552Z,99.90
2019-03-24T00:43:21.276Z,99.90
2019-03-24T00:45:36.272Z,99.90
2019-03-24T00:47:33.236Z,99.90
2019-03-24T00:49:38.163Z,99.90
2019-03-24T00:51:43.080Z,99.90
2019-03-24T00:53:48.551Z,99.90
2019-03-24T00:55:54.325Z,99.90
2019-03-24T00:57:59.198Z,99.90
2019-03-24T01:00:05.089Z,99.90
2019-03-24T01:02:10.075Z,99.90
2019-03-24T01:04:14.987Z,99.90
2019-03-24T01:06:20.877Z,99.90
2019-03-24T01:08:25.932Z,99.90
2019-03-24T01:10:49.554Z,99.90
2019-03-24T01:12:54.455Z,99.90
2019-03-24T01:15:18.206Z,99.90
2019-03-24T01:17:42.111Z,99.90
2019-03-24T01:19:47.015Z,99.90
2019-03-24T01:21:54.432Z,99.90
2019-03-24T01:24:00.862Z,99.90
2019-03-24T01:26:05.920Z,99.90
2019-03-24T01:28:10.911Z,99.90
2019-03-24T01:30:35.523Z,99.90
2019-03-24T01:32:40.454Z,99.90
2019-03-24T01:34:45.489Z,99.90
2019-03-24T01:36:50.505Z,99.90
2019-03-24T01:39:16.250Z,99.90
2019-03-24T01:41:21.231Z,99.90
2019-03-24T01:43:45.799Z,99.90
2019-03-24T01:45:58.691Z,99.90
2019-03-24T01:47:57.356Z,99.90
2019-03-24T01:50:02.256Z,99.90
2019-03-24T01:52:07.149Z,99.90
2019-03-24T01:54:12.150Z,99.90
2019-03-24T01:56:17.080Z,99.90
2019-03-24T01:58:21.939Z,99.90
2019-03-24T02:00:27.155Z,99.90
2019-03-24T02:02:32.096Z,99.90
2019-03-24T02:04:37.078Z,99.90
2019-03-24T02:06:43.135Z,99.90
2019-03-24T02:09:09.207Z,99.90
2019-03-24T02:11:14.160Z,99.90
2019-03-24T02:13:37.841Z,99.90
2019-03-24T02:15:42.702Z,99.90
2019-03-24T02:20:12.154Z,99.90
2019-03-24T02:22:17.184Z,99.90
2019-03-24T02:24:40.862Z,99.90
2019-03-24T02:26:45.760Z,99.90
2019-03-24T02:28:50.943Z,99.90
2019-03-24T02:30:56.223Z,99.90
2019-03-24T02:33:02.008Z,99.90
2019-03-24T02:35:25.913Z,99.90
2019-03-24T02:37:30.875Z,99.90
2019-03-24T02:39:54.575Z,99.90
2019-03-24T02:41:59.486Z,99.90
2019-03-24T02:44:04.399Z,99.90
2019-03-24T02:46:23.203Z,99.90
2019-03-24T02:48:15.971Z,99.90
2019-03-24T02:50:39.643Z,99.90
2019-03-24T02:52:44.603Z,99.90
2019-03-24T02:54:49.856Z,99.90
2019-03-24T02:56:54.763Z,99.90
2019-03-24T02:58:59.920Z,99.90
2019-03-24T03:01:04.952Z,99.90
2019-03-24T03:03:10.430Z,99.90
2019-03-24T03:05:15.734Z,99.90
2019-03-24T03:07:21.557Z,99.90
2019-03-24T03:09:28.370Z,99.90
2019-03-24T03:11:34.282Z,99.90
2019-03-24T03:13:39.256Z,99.90
2019-03-24T03:15:44.394Z,99.90
2019-03-24T03:17:49.393Z,99.90
2019-03-24T03:19:54.390Z,99.90
2019-03-24T03:22:19.032Z,99.90
2019-03-24T03:24:25.188Z,99.90
2019-03-24T03:26:30.767Z,99.90
2019-03-24T03:28:36.134Z,99.90
2019-03-24T03:30:41.322Z,99.90
2019-03-24T03:33:05.088Z,99.90
2019-03-24T03:35:10.615Z,99.90
2019-03-24T03:37:15.648Z,99.90
2019-03-24T03:39:21.362Z,99.90
2019-03-24T03:41:45.146Z,99.90
2019-03-24T03:43:50.131Z,99.90
2019-03-24T03:46:14.676Z,99.90
2019-03-24T03:48:19.519Z,99.90
2019-03-24T03:50:24.483Z,99.90
2019-03-24T03:52:31.424Z,99.90
2019-03-24T03:54:36.464Z,99.90
2019-03-24T03:56:41.445Z,99.90
2019-03-24T03:58:46.686Z,99.90
2019-03-24T04:00:51.645Z,99.90
2019-03-24T04:02:57.044Z,99.90
2019-03-24T04:05:02.058Z,99.90
2019-03-24T04:07:07.027Z,99.90
2019-03-24T04:09:12.875Z,99.90
2019-03-24T04:11:37.809Z,99.90
2019-03-24T04:13:54.049Z,99.90
2019-03-24T04:15:59.398Z,99.90
2019-03-24T04:18:04.493Z,99.90
2019-03-24T04:20:12.425Z,99.90
2019-03-24T04:22:36.092Z,99.90
2019-03-24T04:24:41.028Z,99.90
2019-03-24T04:26:48.751Z,99.90
2019-03-24T04:29:12.393Z,99.90
2019-03-24T04:31:17.535Z,99.90
2019-03-24T04:33:22.789Z,99.90
2019-03-24T04:35:27.789Z,99.90
2019-03-24T04:37:51.586Z,99.90
2019-03-24T04:39:56.478Z,99.90
2019-03-24T04:42:01.536Z,99.90
2019-03-24T04:44:06.439Z,99.90
2019-03-24T04:46:31.737Z,99.90
2019-03-24T04:48:36.679Z,99.90
2019-03-24T04:50:41.837Z,99.90
2019-03-24T04:53:08.589Z,99.90
2019-03-24T04:55:13.618Z,99.90
2019-03-24T04:57:18.483Z,99.90
2019-03-24T04:59:23.432Z,99.90
2019-03-24T05:01:28.479Z,99.90
2019-03-24T05:03:46.375Z,99.90
2019-03-24T05:05:59.649Z,99.90
2019-03-24T05:08:04.750Z,99.90
2019-03-24T05:10:20.985Z,99.90
2019-03-24T05:12:25.847Z,99.90
2019-03-24T05:14:30.747Z,99.90
2019-03-24T05:16:35.639Z,99.90
2019-03-24T05:18:40.535Z,99.90
2019-03-24T05:20:45.583Z,99.90
2019-03-24T05:22:50.575Z,99.90
2019-03-24T05:24:55.567Z,99.90
2019-03-24T05:27:00.483Z,99.90
2019-03-24T05:29:05.471Z,99.90
2019-03-24T05:31:10.786Z,99.90
2019-03-24T05:33:15.751Z,99.90
2019-03-24T05:35:20.708Z,99.90
2019-03-24T05:37:27.482Z,99.90
2019-03-24T05:39:33.122Z,99.90
2019-03-24T05:41:38.034Z,99.90
2019-03-24T05:43:43.763Z,99.90
2019-03-24T05:45:49.059Z,99.90
2019-03-24T05:47:54.059Z,99.90
2019-03-24T05:50:18.056Z,99.90
2019-03-24T05:52:22.955Z,99.90
2019-03-24T05:54:46.625Z,99.90
2019-03-24T05:56:51.518Z,99.90
2019-03-24T05:58:56.552Z,99.90
2019-03-24T06:01:01.518Z,99.90
2019-03-24T06:03:06.602Z,99.90
2019-03-24T06:05:11.824Z,99.90
2019-03-24T06:07:17.966Z,99.90
2019-03-24T06:09:23.917Z,99.90
2019-03-24T06:11:39.773Z,99.90
2019-03-24T06:16:15.861Z,99.90
2019-03-24T06:18:25.724Z,99.90
2019-03-24T06:20:30.497Z,99.90
2019-03-24T06:22:35.683Z,99.90
2019-03-24T06:24:40.640Z,99.90
2019-03-24T06:26:45.574Z,99.90
2019-03-24T06:29:09.213Z,99.90
2019-03-24T06:31:14.223Z,99.90
2019-03-24T06:33:37.856Z,99.90
2019-03-24T06:35:45.794Z,99.90
2019-03-24T06:37:50.692Z,99.90
2019-03-24T06:39:55.587Z,99.90
2019-03-24T06:42:00.775Z,99.90
2019-03-24T06:44:06.433Z,99.90
2019-03-24T06:46:11.401Z,99.90
2019-03-24T06:48:16.321Z,99.90
2019-03-24T06:50:39.914Z,99.90
2019-03-24T06:55:23.912Z,99.90
2019-03-24T06:57:29.164Z,99.90
2019-03-24T06:59:35.065Z,99.90
2019-03-24T07:01:40.354Z,99.90
2019-03-24T07:03:45.878Z,99.90
2019-03-24T07:06:09.775Z,99.90
2019-03-24T07:08:33.585Z,99.90
2019-03-24T07:10:39.012Z,99.90
2019-03-24T07:12:55.507Z,99.90
2019-03-24T07:15:01.718Z,99.90
2019-03-24T07:17:06.773Z,99.90
2019-03-24T07:19:11.641Z,99.90
2019-03-24T07:21:35.422Z,99.90
2019-03-24T07:23:40.734Z,99.90
2019-03-24T07:25:45.983Z,99.90
2019-03-24T07:27:53.183Z,99.90
2019-03-24T07:29:58.221Z,99.90
2019-03-24T07:32:04.350Z,99.90
2019-03-24T07:34:09.382Z,99.90
2019-03-24T07:36:14.350Z,99.90
2019-03-24T07:38:19.345Z,99.90
2019-03-24T07:40:25.577Z,99.90
2019-03-24T07:42:31.269Z,99.90
2019-03-24T07:44:37.346Z,99.90
2019-03-24T07:49:32.280Z,99.90
2019-03-24T07:51:37.238Z,99.90
2019-03-24T07:53:42.147Z,99.90
2019-03-24T07:55:47.355Z,99.90
2019-03-24T07:57:52.290Z,99.90
2019-03-24T08:02:33.973Z,99.90
2019-03-24T08:04:39.091Z,99.90
2019-03-24T08:06:44.319Z,99.90
2019-03-24T08:09:26.900Z,99.90
2019-03-24T08:11:31.834Z,99.90
2019-03-24T08:13:36.797Z,99.90
2019-03-24T08:15:52.620Z,99.90
2019-03-24T08:17:58.501Z,99.90
2019-03-24T08:20:03.429Z,99.90
2019-03-24T08:22:08.418Z,99.90
2019-03-24T08:24:14.339Z,99.90
2019-03-24T08:26:22.899Z,99.90
2019-03-24T08:28:27.844Z,99.90
2019-03-24T08:30:34.718Z,99.90
2019-03-24T08:32:40.588Z,99.90
2019-03-24T08:35:04.387Z,99.90
2019-03-24T08:37:09.653Z,99.90
2019-03-24T08:39:14.619Z,99.90
2019-03-24T08:41:38.909Z,99.90
2019-03-24T08:43:43.900Z,99.90
2019-03-24T08:45:48.846Z,99.90
2019-03-24T08:48:12.886Z,99.90
2019-03-24T08:50:18.689Z,99.90
2019-03-24T08:52:24.506Z,99.90
2019-03-24T08:54:30.048Z,99.90
2019-03-24T08:56:35.142Z,99.90
2019-03-24T08:58:40.280Z,99.90
2019-03-24T09:00:48.486Z,99.90
2019-03-24T09:02:55.973Z,99.90
2019-03-24T09:05:01.109Z,99.90
2019-03-24T09:07:06.260Z,99.90
2019-03-24T09:09:13.576Z,99.90
2019-03-24T09:11:18.584Z,99.90
2019-03-24T09:16:06.523Z,99.90
2019-03-24T09:18:20.776Z,99.90
2019-03-24T09:20:26.727Z,99.90
2019-03-24T09:22:31.744Z,99.90
2019-03-24T09:24:36.674Z,99.90
2019-03-24T09:26:41.523Z,99.90
2019-03-24T09:28:46.944Z,99.90
2019-03-24T09:30:53.974Z,99.90
2019-03-24T09:33:00.172Z,99.90
2019-03-24T09:35:05.867Z,99.90
2019-03-24T09:37:11.194Z,99.90
2019-03-24T09:39:16.285Z,99.90
2019-03-24T09:41:21.333Z,99.90
2019-03-24T09:43:26.649Z,99.90
2019-03-24T09:45:34.953Z,99.90
2019-03-24T09:47:39.999Z,99.90
2019-03-24T09:49:44.895Z,99.90
2019-03-24T09:51:49.959Z,99.90
2019-03-24T09:53:54.950Z,99.90
2019-03-24T09:56:01.261Z,99.90
2019-03-24T09:58:06.561Z,99.90
2019-03-24T10:00:13.956Z,99.90
2019-03-24T10:02:18.921Z,99.90
2019-03-24T10:04:24.494Z,99.90
2019-03-24T10:06:29.591Z,99.90
2019-03-24T10:08:35.374Z,99.90
2019-03-24T10:10:43.808Z,99.90
2019-03-24T10:12:48.742Z,99.90
2019-03-24T10:14:53.705Z,99.90
2019-03-24T10:16:59.751Z,99.90
2019-03-24T10:19:13.491Z,99.90
2019-03-24T10:21:13.285Z,99.90
2019-03-24T10:23:18.666Z,99.90
2019-03-24T10:25:24.186Z,99.90
2019-03-24T10:27:29.430Z,99.90
2019-03-24T10:29:34.439Z,99.90
2019-03-24T10:31:39.598Z,99.90
2019-03-24T10:33:44.672Z,99.90
2019-03-24T10:35:49.571Z,99.90
2019-03-24T10:37:54.491Z,99.90
2019-03-24T10:39:59.438Z,99.90
2019-03-24T10:42:05.584Z,99.90
2019-03-24T10:44:10.686Z,99.90
2019-03-24T10:46:15.802Z,99.90
2019-03-24T10:48:20.758Z,99.90
2019-03-24T10:50:26.376Z,99.90
2019-03-24T10:52:32.419Z,99.90
2019-03-24T10:54:37.768Z,99.90
2019-03-24T10:56:43.118Z,99.90
2019-03-24T10:58:48.068Z,99.90
2019-03-24T11:00:53.420Z,99.90
2019-03-24T11:03:18.017Z,99.90
2019-03-24T11:05:34.665Z,99.90
2019-03-24T11:07:39.925Z,99.90
2019-03-24T11:09:45.290Z,99.90
2019-03-24T11:11:50.795Z,99.90
2019-03-24T11:13:56.869Z,99.90
2019-03-24T11:16:01.836Z,99.50
2019-03-24T11:18:07.679Z,99.00
2019-03-24T11:20:13.951Z,98.30
2019-03-24T11:22:19.156Z,98.90
2019-03-24T11:24:24.175Z,98.90
2019-03-24T11:26:29.150Z,99.90
2019-03-24T11:28:34.315Z,99.90
2019-03-24T11:30:39.373Z,99.90
2019-03-24T11:32:44.629Z,99.90
2019-03-24T11:34:49.981Z,99.90
2019-03-24T11:36:55.318Z,99.90
2019-03-24T11:39:19.000Z,99.90
2019-03-24T11:41:42.693Z,99.90
2019-03-24T11:43:47.987Z,99.90
2019-03-24T11:46:11.711Z,99.90
2019-03-24T11:48:16.720Z,99.90
2019-03-24T11:50:21.741Z,99.90
2019-03-24T11:52:26.914Z,99.90
2019-03-24T11:54:32.134Z,99.90
2019-03-24T11:56:38.377Z,99.90
2019-03-24T11:58:43.431Z,99.90
2019-03-24T12:00:49.464Z,99.90
2019-03-24T12:03:13.280Z,99.60
2019-03-24T12:05:18.423Z,99.50
2019-03-24T12:07:24.948Z,99.50
2019-03-24T12:09:30.530Z,98.90
2019-03-24T12:11:35.582Z,99.30
2019-03-24T12:13:40.629Z,98.70
2019-03-24T12:15:45.599Z,98.10
2019-03-24T12:17:50.560Z,98.50
2019-03-24T12:19:56.922Z,98.00
2019-03-24T12:22:04.075Z,97.00
2019-03-24T12:24:09.005Z,96.60
2019-03-24T12:26:14.103Z,96.60
2019-03-24T12:28:19.041Z,95.40
2019-03-24T12:30:23.921Z,94.90
2019-03-24T12:32:29.191Z,94.40
2019-03-24T12:34:34.082Z,90.90
2019-03-24T12:36:39.257Z,90.40
2019-03-24T12:38:44.260Z,90.60
2019-03-24T12:40:49.597Z,88.90
2019-03-24T12:43:19.323Z,90.60
2019-03-24T12:47:55.239Z,84.80
2019-03-24T12:50:11.634Z,86.40
2019-03-24T12:52:16.549Z,84.70
2019-03-24T12:54:22.070Z,87.70
2019-03-24T12:56:27.222Z,88.40
2019-03-24T12:58:32.212Z,88.20
2019-03-24T13:00:40.990Z,85.60
2019-03-24T13:02:46.746Z,86.00
2019-03-24T13:04:51.673Z,82.00
2019-03-24T13:06:56.664Z,80.70
2019-03-24T13:09:01.559Z,80.50
2019-03-24T13:11:06.597Z,81.80
2019-03-24T13:13:11.652Z,81.90
2019-03-24T13:15:16.617Z,84.30
2019-03-24T13:17:22.850Z,81.40
2019-03-24T13:19:27.791Z,81.20
2019-03-24T13:21:32.689Z,82.00
2019-03-24T13:23:39.539Z,82.60
2019-03-24T13:25:44.500Z,82.30
2019-03-24T13:27:50.477Z,81.70
2019-03-24T13:29:55.390Z,82.30
2019-03-24T13:32:00.353Z,80.30
2019-03-24T13:34:05.435Z,79.50
2019-03-24T13:36:12.874Z,78.70
2019-03-24T13:38:36.633Z,78.60
2019-03-24T13:41:00.334Z,75.70
2019-03-24T13:43:24.003Z,76.70
2019-03-24T13:45:29.050Z,74.80
2019-03-24T13:47:52.857Z,74.20
2019-03-24T13:50:16.825Z,72.60
2019-03-24T13:54:49.894Z,70.40
2019-03-24T13:57:06.392Z,71.50
2019-03-24T13:59:22.914Z,70.20
2019-03-24T14:01:28.051Z,72.30
2019-03-24T14:03:33.220Z,71.80
2019-03-24T14:05:38.224Z,70.40
2019-03-24T14:07:43.165Z,70.40
2019-03-24T14:09:48.210Z,69.80
2019-03-24T14:11:53.452Z,68.70
2019-03-24T14:13:58.414Z,69.40
2019-03-24T14:16:03.330Z,72.00
2019-03-24T14:18:08.364Z,70.20
2019-03-24T14:20:13.783Z,70.10
2019-03-24T14:22:18.686Z,66.40
2019-03-24T14:24:25.439Z,68.50
2019-03-24T14:26:30.521Z,70.40
2019-03-24T14:28:35.502Z,73.90
2019-03-24T14:30:59.192Z,72.50
2019-03-24T14:33:06.856Z,68.80
2019-03-24T14:35:11.935Z,68.00
2019-03-24T14:37:16.955Z,65.00
2019-03-24T14:39:21.983Z,61.30
2019-03-24T14:41:27.847Z,59.90
2019-03-24T14:43:33.810Z,61.10
2019-03-24T14:45:38.879Z,58.10
2019-03-24T14:47:43.731Z,55.00
2019-03-24T14:49:48.767Z,58.00
2019-03-24T14:51:53.755Z,61.50
2019-03-24T14:53:58.747Z,62.60
2019-03-24T14:56:22.419Z,63.10
2019-03-24T14:58:27.442Z,62.80
2019-03-24T15:00:37.138Z,62.20
2019-03-24T15:02:43.229Z,56.00
2019-03-24T15:05:27.308Z,55.30
2019-03-24T15:07:32.574Z,53.60
2019-03-24T15:09:41.884Z,55.70
2019-03-24T15:12:05.687Z,56.50
2019-03-24T15:14:11.683Z,58.20
2019-03-24T15:16:17.490Z,58.60
2019-03-24T15:18:23.346Z,59.40
2019-03-24T15:20:29.657Z,60.80
2019-03-24T15:22:53.654Z,61.20
2019-03-24T15:25:02.164Z,63.00
2019-03-24T15:29:34.967Z,63.10
2019-03-24T15:31:41.968Z,65.60
2019-03-24T15:33:47.805Z,66.80
2019-03-24T15:35:53.068Z,66.50
2019-03-24T15:38:08.072Z,68.00
2019-03-24T15:40:05.587Z,69.40
2019-03-24T15:42:32.378Z,70.50
2019-03-24T15:44:39.405Z,70.90
2019-03-24T15:46:44.780Z,71.30
2019-03-24T15:48:50.287Z,72.60
2019-03-24T15:53:06.868Z,75.60
2019-03-24T15:55:12.226Z,77.60
2019-03-24T15:57:18.245Z,78.10
2019-03-24T15:59:23.471Z,77.30
2019-03-24T16:01:28.584Z,76.40
2019-03-24T16:03:33.687Z,71.60
2019-03-24T16:05:39.097Z,66.70
2019-03-24T16:07:44.439Z,60.20
2019-03-24T16:09:49.791Z,60.10
2019-03-24T16:12:06.442Z,57.40
2019-03-24T16:16:43.483Z,55.50
2019-03-24T16:18:48.986Z,54.90
2019-03-24T16:20:53.936Z,55.30
2019-03-24T16:23:01.728Z,58.10
2019-03-24T16:25:11.614Z,59.20
2019-03-24T16:27:16.877Z,60.70
2019-03-24T16:29:22.224Z,63.10
2019-03-24T16:31:27.972Z,62.90
2019-03-24T16:33:33.871Z,62.40
2019-03-24T16:35:39.311Z,64.30
2019-03-24T16:37:44.822Z,64.30
2019-03-24T16:39:49.935Z,65.50
2019-03-24T16:41:55.795Z,66.60
2019-03-24T16:44:00.923Z,68.20
2019-03-24T16:46:05.952Z,68.60
2019-03-24T16:48:14.185Z,69.50
2019-03-24T16:50:37.924Z,70.00
2019-03-24T16:52:42.793Z,71.00
2019-03-24T16:54:47.994Z,71.60
2019-03-24T16:56:53.040Z,72.80
2019-03-24T16:58:58.149Z,73.60
2019-03-24T17:01:03.717Z,73.40
2019-03-24T17:03:08.714Z,73.10
2019-03-24T17:05:16.622Z,74.00
2019-03-24T17:07:21.634Z,75.30
2019-03-24T17:09:27.049Z,76.00
2019-03-24T17:11:32.081Z,77.70
2019-03-24T17:13:39.876Z,78.50
2019-03-24T17:15:44.790Z,78.50
2019-03-24T17:17:49.823Z,78.00
2019-03-24T17:19:54.738Z,78.50
2019-03-24T17:22:00.616Z,78.70
2019-03-24T17:26:40.927Z,80.00
2019-03-24T17:28:49.777Z,81.00
2019-03-24T17:30:56.532Z,82.00
2019-03-24T17:33:20.533Z,82.70
2019-03-24T17:35:25.540Z,83.10
2019-03-24T17:37:30.755Z,83.70
2019-03-24T17:39:36.686Z,85.60
2019-03-24T17:41:41.958Z,84.80
2019-03-24T17:43:47.115Z,84.00
2019-03-24T17:45:55.860Z,82.80
2019-03-24T17:48:02.037Z,81.50
2019-03-24T17:50:08.157Z,80.30
2019-03-24T17:52:16.584Z,77.60
2019-03-24T17:54:22.055Z,76.90
2019-03-24T17:56:28.506Z,75.30
2019-03-24T17:58:35.240Z,74.20
2019-03-24T18:03:44.135Z,73.10
2019-03-24T18:05:49.698Z,71.40
2019-03-24T18:08:13.431Z,72.50
2019-03-24T18:12:57.221Z,71.10
2019-03-24T18:15:03.863Z,71.50
2019-03-24T18:17:09.286Z,70.40
2019-03-24T18:19:14.336Z,70.80
2019-03-24T18:21:21.498Z,70.90
2019-03-24T18:23:27.358Z,72.40
2019-03-24T18:28:07.053Z,72.80
2019-03-24T18:30:13.539Z,73.50
2019-03-24T18:32:18.489Z,73.90
2019-03-24T18:34:23.867Z,73.70
2019-03-24T18:36:28.982Z,74.00
2019-03-24T18:38:34.160Z,74.20
2019-03-24T18:40:39.631Z,75.10
2019-03-24T18:42:48.305Z,75.30
2019-03-24T18:44:54.248Z,76.80
2019-03-24T18:47:01.861Z,78.60
2019-03-24T18:49:07.107Z,80.40
2019-03-24T18:51:15.482Z,81.80
2019-03-24T18:53:21.158Z,83.30
2019-03-24T18:55:27.234Z,84.00
2019-03-24T18:57:32.394Z,86.00
2019-03-24T18:59:37.608Z,87.30
2019-03-24T19:01:43.700Z,88.00
2019-03-24T19:03:48.699Z,88.80
2019-03-24T19:05:54.031Z,89.60
2019-03-24T19:08:17.998Z,90.00
2019-03-24T19:10:24.248Z,90.20
2019-03-24T19:12:31.941Z,90.80
2019-03-24T19:14:37.440Z,91.00
2019-03-24T19:16:42.893Z,90.80
2019-03-24T19:18:53.208Z,90.90
2019-03-24T19:20:58.195Z,90.90
2019-03-24T19:23:04.532Z,91.40
2019-03-24T19:25:12.101Z,91.50
2019-03-24T19:27:36.410Z,91.60
2019-03-24T19:29:42.871Z,91.80
2019-03-24T19:31:50.395Z,91.90
2019-03-24T19:36:25.235Z,92.40
2019-03-24T19:38:41.784Z,92.70
2019-03-24T19:40:50.329Z,92.60
2019-03-24T19:42:59.993Z,92.90
2019-03-24T19:45:06.411Z,93.20
2019-03-24T19:47:11.741Z,93.10
2019-03-24T19:49:19.739Z,93.10
2019-03-24T19:51:24.928Z,93.80
2019-03-24T19:53:29.983Z,93.70
2019-03-24T19:55:36.058Z,94.20
2019-03-24T19:57:41.942Z,94.40
2019-03-24T19:59:46.944Z,94.90
2019-03-24T20:02:12.307Z,95.10
2019-03-24T20:04:17.576Z,95.50
2019-03-24T20:07:02.681Z,95.80
2019-03-24T20:09:09.297Z,95.80
2019-03-24T20:11:15.527Z,95.90
2019-03-24T20:13:20.714Z,96.20
2019-03-24T20:15:25.754Z,96.70
2019-03-24T20:17:51.475Z,96.50
2019-03-24T20:20:03.095Z,96.50
2019-03-24T20:22:10.386Z,96.80
2019-03-24T20:26:31.699Z,97.60
2019-03-24T20:28:36.758Z,97.70
2019-03-24T20:30:45.911Z,98.10
2019-03-24T20:32:51.933Z,98.40
2019-03-24T20:34:59.560Z,98.60
2019-03-24T20:37:04.723Z,98.70
2019-03-24T20:39:10.695Z,99.20
2019-03-24T20:41:19.302Z,99.60
2019-03-24T20:43:25.425Z,99.90
2019-03-24T20:45:30.638Z,99.90
2019-03-24T20:47:35.745Z,99.90
2019-03-24T20:49:41.486Z,99.90
2019-03-24T20:51:49.416Z,99.90
2019-03-24T20:53:57.089Z,99.90
2019-03-24T20:56:06.545Z,99.90
2019-03-24T20:58:13.081Z,99.90
2019-03-24T21:00:37.165Z,99.90
2019-03-24T21:03:05.269Z,99.90
2019-03-24T21:05:11.158Z,99.90
2019-03-24T21:09:35.645Z,99.90
2019-03-24T21:11:41.277Z,99.90
2019-03-24T21:13:46.314Z,99.90
2019-03-24T21:15:57.666Z,99.90
2019-03-24T21:17:59.790Z,99.90
2019-03-24T21:20:05.977Z,99.90
2019-03-24T21:22:11.302Z,99.90
2019-03-24T21:24:19.422Z,99.90
2019-03-24T21:26:42.566Z,99.90
2019-03-24T21:28:48.115Z,99.90
2019-03-24T21:30:53.196Z,99.90
2019-03-24T21:32:59.657Z,99.90
2019-03-24T21:35:25.744Z,99.90
2019-03-24T21:37:49.506Z,99.90
2019-03-24T21:39:54.665Z,99.90
2019-03-24T21:41:59.906Z,99.90
2019-03-24T21:44:04.990Z,99.90
2019-03-24T21:46:11.598Z,99.90
2019-03-24T21:48:16.525Z,99.90
2019-03-24T21:50:40.242Z,99.90
2019-03-24T21:52:45.358Z,99.90
2019-03-24T21:54:50.892Z,99.90
2019-03-24T21:56:55.890Z,99.90
2019-03-24T21:59:01.379Z,99.90
2019-03-24T22:01:25.126Z,99.90
2019-03-24T22:03:30.088Z,99.90
2019-03-24T22:05:35.204Z,99.90
2019-03-24T22:07:40.548Z,99.90
2019-03-24T22:10:04.758Z,99.90
2019-03-24T22:12:09.976Z,99.90
2019-03-24T22:14:15.626Z,99.90
2019-03-24T22:16:20.583Z,99.90
2019-03-24T22:18:25.829Z,99.90
2019-03-24T22:20:31.947Z,99.90
2019-03-24T22:22:37.189Z,99.90
2019-03-24T22:25:01.687Z,99.90
2019-03-24T22:27:18.107Z,99.90
2019-03-24T22:29:23.206Z,99.90
2019-03-24T22:31:28.564Z,99.90
2019-03-24T22:33:45.356Z,99.90
2019-03-24T22:36:01.432Z,99.90
2019-03-24T22:38:07.392Z,99.90
2019-03-24T22:40:19.307Z,99.90
2019-03-24T22:42:25.206Z,99.90
2019-03-24T22:44:49.052Z,99.90
2019-03-24T22:46:54.137Z,99.90
2019-03-24T22:48:59.027Z,99.90
2019-03-24T22:51:04.324Z,99.90
2019-03-24T22:53:09.357Z,99.90
2019-03-24T22:55:15.655Z,99.90
2019-03-24T22:57:20.534Z,99.90
2019-03-24T22:59:25.571Z,99.90
2019-03-24T23:01:30.835Z,99.90
2019-03-24T23:03:36.969Z,99.90
2019-03-24T23:05:42.796Z,99.90
2019-03-24T23:07:47.664Z,99.90
2019-03-24T23:09:52.871Z,99.90
2019-03-24T23:11:59.194Z,99.90
2019-03-24T23:14:05.408Z,99.90
2019-03-24T23:16:10.413Z,99.90
2019-03-24T23:18:35.022Z,99.90
2019-03-24T23:20:39.951Z,99.90
2019-03-24T23:22:44.930Z,99.90
2019-03-24T23:24:49.882Z,99.90
2019-03-24T23:26:54.910Z,99.90
2019-03-24T23:29:18.588Z,99.90
2019-03-24T23:31:23.513Z,99.90
2019-03-24T23:33:28.440Z,99.90
2019-03-24T23:35:33.345Z,99.90
2019-03-24T23:37:39.289Z,99.90
2019-03-24T23:39:44.181Z,99.90
2019-03-24T23:41:49.762Z,99.90
2019-03-24T23:43:54.793Z,99.90
2019-03-24T23:45:59.872Z,99.90
2019-03-24T23:48:04.922Z,99.90
2019-03-24T23:50:10.395Z,99.90
2019-03-24T23:52:15.329Z,99.90
2019-03-24T23:54:26.975Z,99.90
2019-03-24T23:56:27.103Z,99.90
2019-03-24T23:58:50.762Z,99.90
